BrazilFixed distance
Ultramaratona dos Perdidos 105 Km
15–16 Jul2017
Distance
105km
Finishers
4036 men4 women
Winning time
12:58:26h
Median pace
5.41km/h
Pace distribution
40 finishers · 4.81–8.09 km/h · mean 5.76
Every finisher ran the same 105 km course, so these paces are directly comparable.
Histogram of finisher pace. 40 finishers ranged from 4.81 to 8.09 kilometres per hour, with a mean of 5.76 and a median of 5.41. The busiest band is 5.0 to 5.5 kilometres per hour, with 13 finishers.
Results
Ranks 1–40 of 40
| Rank | Runner | Time | Pace | Cat. | Placing |
|---|---|---|---|---|---|
| 1 | Ibsgangs | 12:58:26h | 8.09 | M35 | 1st M · 1st M35 |
| 2 | Gc Nixon Fernandes | 13:18:49h | 7.89 | M35 | 2nd M · 2nd M35 |
| 3 | Go On Outdoor Team | 13:22:25h | 7.85 | M35 | 3rd M · 3rd M35 |
| 4 | 14:58:35h | 7.01 | M23 | 4th M · 1st M23 | |
| 5 | Jvm Trail Run / Go On ... | 14:58:35h | 7.01 | M23 | 4th M · 1st M23 |
| 6 | Exercito De Um Homem So | 15:08:49h | 6.93 | M35 | 6th M · 4th M35 |
| 7 | Tendencia Outdoor | 15:13:44h | 6.89 | M35 | 7th M · 5th M35 |
| 8 | 15:35:15h | 6.74 | M35 | 8th M · 6th M35 | |
| 9 | Maria Lavadeira | 16:12:58h | 6.47 | M40 | 9th M · 1st M40 |
| 10 | 16:34:18h | 6.34 | M35 | 10th M · 7th M35 | |
| 11 | Gap_Ultra / Fisiort / ... | 16:42:15h | 6.29 | M35 | 11th M · 8th M35 |
| 12 | Trf | 17:29:27h | 6.00 | M23 | 12th M · 3rd M23 |
| 13 | Bpm/Sesc | 18:04:55h | 5.81 | M50 | 13th M · 1st M50 |
| 14 | Btr | 18:14:55h | 5.75 | M35 | 14th M · 9th M35 |
| 15 | 18:17:19h | 5.74 | W40 | 1st F · 1st W40 | |
| 16 | Master Fit Paraty | 18:30:43h | 5.67 | M40 | 15th M · 2nd M40 |
| 17 | Toldolon/Rf | 18:50:34h | 5.57 | M45 | 16th M · 1st M45 |
| 18 | D-Run / Bicho Do Mato ... | 18:52:33h | 5.56 | M40 | 17th M · 3rd M40 |
| 19 | Ezk Team | 19:01:29h | 5.52 | M35 | 18th M · 10th M35 |
| 20 | Akg Imoveis | 19:01:30h | 5.52 | M45 | 19th M · 2nd M45 |
| 21 | Corrrecaminos Uruguay | 19:24:14h | 5.41 | M35 | 20th M · 11th M35 |
| 22 | Clinica Vera Lehm | 19:45:17h | 5.32 | M35 | 21st M · 12th M35 |
| 23 | Go On Outdoor Team | 19:50:24h | 5.29 | W45 | 2nd F · 1st W45 |
| 24 | Go On Outdoor Team | 19:50:25h | 5.29 | M35 | 22nd M · 13th M35 |
| 25 | Nalu Pelo Mundo | 20:10:31h | 5.20 | M35 | 23rd M · 14th M35 |
| 26 | Lobo Assessoria/Adventure | 20:17:28h | 5.17 | M23 | 24th M · 4th M23 |
| 27 | Iv Clima Aventura | 20:19:43h | 5.17 | M40 | 25th M · 4th M40 |
| 28 | Comandos Brasil Trail ... | 20:29:20h | 5.13 | M40 | 26th M · 5th M40 |
| 29 | 20:30:36h | 5.12 | M23 | 27th M · 5th M23 | |
| 30 | Floriparunners | 20:36:18h | 5.10 | M40 | 28th M · 6th M40 |
| 31 | Georun | 20:36:19h | 5.10 | M23 | 29th M · 6th M23 |
| 32 | Top Five Assessoria Es... | 20:48:19h | 5.05 | M40 | 30th M · 7th M40 |
| 33 | Andre Villarinho | 20:48:57h | 5.04 | M35 | 31st M · 15th M35 |
| 34 | 21:00:31h | 5.00 | M23 | 32nd M · 7th M23 | |
| 35 | Equipe Minoru | 21:20:02h | 4.92 | M23 | 33rd M · 8th M23 |
| 36 | 21:23:28h | 4.91 | M23 | 34th M · 9th M23 | |
| 37 | Furukawa | 21:23:50h | 4.91 | M23 | 35th M · 10th M23 |
| 38 | Ultra Bonatto Team | 21:43:25h | 4.83 | W40 | 3rd F · 2nd W40 |
| 39 | Trb | 21:49:10h | 4.81 | W35 | 4th F · 1st W35 |
| 40 | Kailash Brasil Bicho D... | 21:49:10h | 4.81 | M35 | 36th M · 16th M35 |
- 1Ibsgangs1st M · 1st M35Time12:58:26hPace8.09Cat.M35
- 2Gc Nixon Fernandes2nd M · 2nd M35Time13:18:49hPace7.89Cat.M35
- 3Go On Outdoor Team3rd M · 3rd M35Time13:22:25hPace7.85Cat.M35
- 44th M · 1st M23Time14:58:35hPace7.01Cat.M23
- 5Jvm Trail Run / Go On ...4th M · 1st M23Time14:58:35hPace7.01Cat.M23
- 6Exercito De Um Homem So6th M · 4th M35Time15:08:49hPace6.93Cat.M35
- 7Tendencia Outdoor7th M · 5th M35Time15:13:44hPace6.89Cat.M35
- 88th M · 6th M35Time15:35:15hPace6.74Cat.M35
- 9Maria Lavadeira9th M · 1st M40Time16:12:58hPace6.47Cat.M40
- 1010th M · 7th M35Time16:34:18hPace6.34Cat.M35
- 11Gap_Ultra / Fisiort / ...11th M · 8th M35Time16:42:15hPace6.29Cat.M35
- 12Trf12th M · 3rd M23Time17:29:27hPace6.00Cat.M23
- 13Bpm/Sesc13th M · 1st M50Time18:04:55hPace5.81Cat.M50
- 14Btr14th M · 9th M35Time18:14:55hPace5.75Cat.M35
- 151st F · 1st W40Time18:17:19hPace5.74Cat.W40
- 16Master Fit Paraty15th M · 2nd M40Time18:30:43hPace5.67Cat.M40
- 17Toldolon/Rf16th M · 1st M45Time18:50:34hPace5.57Cat.M45
- 18D-Run / Bicho Do Mato ...17th M · 3rd M40Time18:52:33hPace5.56Cat.M40
- 19Ezk Team18th M · 10th M35Time19:01:29hPace5.52Cat.M35
- 20Akg Imoveis19th M · 2nd M45Time19:01:30hPace5.52Cat.M45
- 21Corrrecaminos Uruguay20th M · 11th M35Time19:24:14hPace5.41Cat.M35
- 22Clinica Vera Lehm21st M · 12th M35Time19:45:17hPace5.32Cat.M35
- 23Go On Outdoor Team2nd F · 1st W45Time19:50:24hPace5.29Cat.W45
- 24Go On Outdoor Team22nd M · 13th M35Time19:50:25hPace5.29Cat.M35
- 25Nalu Pelo Mundo23rd M · 14th M35Time20:10:31hPace5.20Cat.M35
- 26Lobo Assessoria/Adventure24th M · 4th M23Time20:17:28hPace5.17Cat.M23
- 27Iv Clima Aventura25th M · 4th M40Time20:19:43hPace5.17Cat.M40
- 28Comandos Brasil Trail ...26th M · 5th M40Time20:29:20hPace5.13Cat.M40
- 2927th M · 5th M23Time20:30:36hPace5.12Cat.M23
- 30Floriparunners28th M · 6th M40Time20:36:18hPace5.10Cat.M40
- 31Georun29th M · 6th M23Time20:36:19hPace5.10Cat.M23
- 32Top Five Assessoria Es...30th M · 7th M40Time20:48:19hPace5.05Cat.M40
- 33Andre Villarinho31st M · 15th M35Time20:48:57hPace5.04Cat.M35
- 3432nd M · 7th M23Time21:00:31hPace5.00Cat.M23
- 35Equipe Minoru33rd M · 8th M23Time21:20:02hPace4.92Cat.M23
- 3634th M · 9th M23Time21:23:28hPace4.91Cat.M23
- 37Furukawa35th M · 10th M23Time21:23:50hPace4.91Cat.M23
- 38Ultra Bonatto Team3rd F · 2nd W40Time21:43:25hPace4.83Cat.W40
- 39Trb4th F · 1st W35Time21:49:10hPace4.81Cat.W35
- 40Kailash Brasil Bicho D...36th M · 16th M35Time21:49:10hPace4.81Cat.M35